• Join FlightAware (Why Join?)
  • Login
  • US Flag 
03:48AM EDT


 

Airport Tracker/Info


-or-


 

Live Flight TrackerFlight Track Log ✈ AWE3374 ✈ 28-Apr-2013 ✈ KDCA - KMHT

Flight Track Log - Related Links

Times and Time Zones

All times are in EDT time to prevent confusion due to time zone crossing. See the AWE3374 flight status page for this flight to view local times or setup timezone preferences in your user account.

Time Position Orientation Groundspeed Altitude Reporting Facility
EDT Latitude Longitude Course Direction KTS MPH feet Rate Location/Type
03:03PM 38.8000 -77.0333 83° East 162 186 2,000  Level Potomac TRACON
03:04PM 38.7833 -76.9833 113° Southeast 231 266 4,800 2,880 Climbing Potomac TRACON
03:05PM 39.0200 -76.5566 67° East  Level FlightAware Approximate
03:06PM 39.0657 -76.4359 63° Northeast  Level FlightAware Approximate
03:06PM 38.8586 -76.8686 50° Northeast 241 277 9,800  Level Washington Center
03:07PM 39.1161 -76.3181 61° Northeast  Level FlightAware Approximate
03:07PM 38.9342 -76.8139 29° Northeast 275 316 11,900  Level Washington Center
03:08PM 39.1516 -76.2007 83° East  Level FlightAware Approximate
03:08PM 39.0122 -76.7403 36° Northeast 318 366 14,700  Level Washington Center
03:09PM 39.0383 -76.6125 75° East 331 381 17,000 2,040 Climbing Washington Center
03:10PM 39.0664 -76.4819 74° East 350 403 18,900 960 Climbing Washington Center
03:11PM 39.0944 -76.3325 76° East 387 445 19,000  Climbing Washington Center
03:12PM 39.1222 -76.1961 75° East 400 460 19,000  Level Washington Center
03:13PM 39.1542 -76.0628 73° East 394 453 19,000 300 Level Washington Center
03:14PM 39.1817 -75.9317 75° East 389 448 19,700 1,380 Climbing Washington Center
03:15PM 39.2403 -75.8139 57° Northeast 380 437 21,800 1,620 Climbing Washington Center
03:16PM 39.3258 -75.7097 43° Northeast 395 455 23,000 1,380 Climbing Washington Center
03:17PM 39.4136 -75.5969 45° Northeast 415 478 24,700 1,560 Climbing Washington Center
03:18PM 39.5008 -75.4839 45° Northeast 430 495 26,200 1,380 Climbing Washington Center
03:19PM 39.5903 -75.3653 46° Northeast 441 507 27,500 840 Climbing Washington Center
03:21PM 39.7819 -75.0956 47° Northeast 465 535 29,000 420 Climbing New York Center
03:22PM 39.8722 -74.9686 47° Northeast 471 542 29,000  Level New York Center
03:23PM 39.9686 -74.8336 47° Northeast 466 536 29,000  Level New York Center
03:24PM 40.0497 -74.7164 48° Northeast 445 512 29,000  Level New York Center
03:25PM 40.1372 -74.5908 48° Northeast 452 520 29,000  Level New York Center
03:26PM 40.2306 -74.4764 43° Northeast 452 520 29,000  Level New York Center
03:27PM 40.3422 -74.4361 15° North 422 486 29,000  Level New York Center
03:28PM 40.4556 -74.4069 11° North 409 471 29,000  Level New York Center
03:29PM 40.5692 -74.3772 11° North 409 471 29,000  Level New York Center
03:31PM 40.7819 -74.3286 10° North 433 498 29,000  Level Boston Center
03:32PM 40.8950 -74.2989 11° North 423 487 29,000  Level Boston Center
03:33PM 41.0100 -74.2692 11° North 423 487 29,000  Level Boston Center
03:34PM 41.1231 -74.2394 11° North 418 481 29,000  Level Boston Center
03:35PM 41.2339 -74.2094 12° North 407 468 29,000  Level Boston Center
03:36PM 41.3469 -74.1794 11° North 407 468 29,000  Level Boston Center
03:37PM 41.4642 -74.1464 12° North 413 475 29,000  Level Boston Center
03:38PM 41.5814 -74.1192 10° North 419 482 29,000  Level Boston Center
03:39PM 41.6906 -74.0608 22° Northeast 419 482 29,000  Level Boston Center
03:40PM 41.7919 -73.9661 35° Northeast 419 482 29,000  Level Boston Center
03:41PM 41.8953 -73.8708 34° Northeast 419 482 29,000  Level Boston Center
03:42PM 41.9944 -73.7781 35° Northeast 425 489 29,000  Level Boston Center
03:43PM 42.0850 -73.6906 36° Northeast 436 502 29,000 -660 Level Boston Center
03:44PM 42.1614 -73.5744 48° Northeast 429 494 27,700 -1,320 Descending Boston Center
03:45PM 42.2294 -73.4356 56° Northeast 423 487 26,400 -1,440 Descending Boston Center
03:46PM 42.2972 -73.3019 56° Northeast 418 481 24,900 -1,560 Descending Boston Center
03:47PM 42.3564 -73.1789 57° Northeast 413 475 23,300 -1,680 Descending Boston Center
03:48PM 42.4133 -73.0644 56° Northeast 402 463 21,600 -1,740 Descending Boston Center
03:49PM 42.4681 -72.9467 58° Northeast 382 440 19,900 -1,320 Descending Boston Center
03:50PM 42.5289 -72.8317 54° Northeast 348 400 19,000 -900 Descending Boston Center
03:51PM 42.5753 -72.7136 62° Northeast 348 400 18,200 -1,200 Descending Boston Center
03:52PM 42.6086 -72.6094 66° East 340 391 16,600 -1,860 Descending Boston Center
03:53PM 42.6464 -72.4936 66° East 335 386 14,500 -2,100 Descending Boston Center
03:54PM 42.6797 -72.3836 68° East 330 380 12,400 -2,100 Descending Boston Center
03:55PM 42.7150 -72.2650 68° East 320 368 10,400 -1,680 Descending Boston Center
03:56PM 42.7419 -72.1744 68° East 289 333 9,100 -720 Descending Boston Center
03:57PM 42.7769 -72.0694 66° East 278 320 9,000 -840 Descending Boston Center
03:58PM 42.8122 -71.9872 60° Northeast 268 308 7,500 -1,560 Descending Boston Center
03:59PM 42.8597 -71.8878 57° Northeast 274 315 5,900 -1,500 Descending Boston Center
04:00PM 42.8989 -71.8139 54° Northeast 274 315 4,500 -900 Descending Boston Center
04:01PM 42.9464 -71.7281 53° Northeast 264 304 4,100 -300 Descending Boston Center
04:02PM 42.9792 -71.6597 57° Northeast 247 284 4,000 -600 Descending Boston Center
04:03PM 43.0036 -71.5797 67° East 220 253 2,900 -1,020 Descending Boston Center
04:04PM 43.0072 -71.5172 85° East 195 224 2,000 -900 Descending Boston Center